KCOU/COU METAR and TAF weather

Enter ICAO airport designator
Station Type Date Time Source
KCOU METAR 2022/01/26 20:54 UTC NOAA

KCOU 262054Z VRB03KT 10SM CLR M02/M21 A3034 RMK AO2 SLP286 T10221206 56037


Station Type Date Time Source
KCOU Decoded METAR 2022/01/26 20:54 UTC NOAA

COLUMBIA REGIONAL AIRPORT, MO, United States (KCOU) 38-49N 092-13W 271M
Jan 26, 2022 - 03:54 PM EST / 2022.01.26 2054 UTC
Wind: Variable at 3 MPH (3 KT):0
Visibility: 10 mile(s):0
Sky conditions: clear
Temperature: 28.0 F (-2.2 C)
Dew Point: -5.1 F (-20.6 C)
Relative Humidity: 22%
Pressure (altimeter): 30.34 in. Hg (1027 hPa)
Pressure tendency: 0.11 inches (3.7 hPa) lower than three hours ago
ob: KCOU 262054Z VRB03KT 10SM CLR M02/M21 A3034 RMK AO2 SLP286 T10221206 56037
cycle: 21

Station Type Date Time Source
KCOU TAF 2022/01/26 18:39 UTC NOAA

KCOU 261735Z 2618/2718 17006KT P6SM SKC
FM270600 20008KT P6SM BKN060
FM271200 22009KT P6SM VCSH OVC060
FM271600 26010G18KT P6SM BKN100

Example: see airport list